createdAt,value
2022-11-24T00:01:17.711Z,22.92
2022-11-24T00:03:46.103Z,14.43
2022-11-24T00:06:15.527Z,5.45
2022-11-24T00:08:44.277Z,11.87
2022-11-24T00:11:14.643Z,10.05
2022-11-24T00:13:42.194Z,6.20
2022-11-24T00:16:18.758Z,5.05
2022-11-24T00:18:48.381Z,4.15
2022-11-24T00:21:17.063Z,4.53
2022-11-24T00:23:44.671Z,2.45
2022-11-24T00:26:14.745Z,4.45
2022-11-24T00:28:43.070Z,3.53
2022-11-24T00:31:21.852Z,2.83
2022-11-24T00:33:50.443Z,3.37
2022-11-24T00:36:19.122Z,3.75
2022-11-24T00:38:46.579Z,4.05
2022-11-24T00:41:13.884Z,3.35
2022-11-24T00:43:40.607Z,3.00
2022-11-24T00:46:07.756Z,3.53
2022-11-24T00:48:34.645Z,3.92
2022-11-24T00:51:06.762Z,5.43
2022-11-24T00:53:33.572Z,5.18
2022-11-24T00:56:00.766Z,5.28
2022-11-24T00:58:27.430Z,6.33
2022-11-24T01:00:54.491Z,13.43
2022-11-24T01:03:22.757Z,9.27
2022-11-24T01:05:49.704Z,5.20
2022-11-24T01:08:16.463Z,5.70
2022-11-24T01:10:43.551Z,6.43
2022-11-24T01:13:12.115Z,8.57
2022-11-24T01:15:39.922Z,5.38
2022-11-24T01:18:07.007Z,4.32
2022-11-24T01:20:34.057Z,5.43
2022-11-24T01:23:00.803Z,4.90
2022-11-24T01:25:27.755Z,4.70
2022-11-24T01:27:54.537Z,5.18
2022-11-24T01:30:23.105Z,7.15
2022-11-24T01:32:50.164Z,6.40
2022-11-24T01:35:17.155Z,8.33
2022-11-24T01:37:44.256Z,7.43
2022-11-24T01:40:11.640Z,7.40
2022-11-24T01:42:50.858Z,4.63
2022-11-24T01:45:32.415Z,6.53
2022-11-24T01:48:01.079Z,5.67
2022-11-24T01:50:28.168Z,6.43
2022-11-24T01:52:56.626Z,7.50
2022-11-24T01:55:30.845Z,9.57
2022-11-24T01:58:09.867Z,8.35
2022-11-24T02:00:38.654Z,8.43
2022-11-24T02:03:06.738Z,9.30
2022-11-24T02:05:45.258Z,10.15
2022-11-24T02:08:25.787Z,9.93
2022-11-24T02:10:52.784Z,9.18
2022-11-24T02:13:19.722Z,8.30
2022-11-24T02:15:46.643Z,9.45
2022-11-24T02:18:13.337Z,9.25
2022-11-24T02:20:40.366Z,11.07
2022-11-24T02:23:14.145Z,7.15
2022-11-24T02:26:08.478Z,9.47
2022-11-24T02:28:35.225Z,12.07
2022-11-24T02:31:02.816Z,13.65
2022-11-24T02:33:30.298Z,9.40
2022-11-24T02:35:57.387Z,9.73
2022-11-24T02:38:35.216Z,9.83
2022-11-24T02:41:08.729Z,14.65
2022-11-24T02:43:41.711Z,17.45
2022-11-24T02:46:10.768Z,12.63
2022-11-24T02:48:38.402Z,12.80
2022-11-24T02:51:05.632Z,8.93
2022-11-24T02:53:32.307Z,11.23
2022-11-24T02:55:59.203Z,14.07
2022-11-24T02:58:25.938Z,10.75
2022-11-24T03:00:54.409Z,8.07
2022-11-24T03:03:21.712Z,8.43
2022-11-24T03:05:48.690Z,11.60
2022-11-24T03:08:15.489Z,10.90
2022-11-24T03:10:42.449Z,13.25
2022-11-24T03:13:09.355Z,14.02
2022-11-24T03:15:36.583Z,14.13
2022-11-24T03:18:03.623Z,8.65
2022-11-24T03:20:30.539Z,8.43
2022-11-24T03:22:57.186Z,8.50
2022-11-24T03:25:24.164Z,13.20
2022-11-24T03:27:51.179Z,13.37
2022-11-24T03:30:18.093Z,39.67
2022-11-24T03:32:44.893Z,56.83
2022-11-24T03:35:12.134Z,56.28
2022-11-24T03:37:38.828Z,38.63
2022-11-24T03:40:06.479Z,21.70
2022-11-24T03:42:33.152Z,21.95
2022-11-24T03:45:16.737Z,28.42
2022-11-24T03:47:50.575Z,41.60
2022-11-24T03:50:17.602Z,65.63
2022-11-24T03:52:44.243Z,239.17
2022-11-24T03:55:11.182Z,304.40
2022-11-24T03:57:37.829Z,161.80
2022-11-24T04:00:06.488Z,173.07
2022-11-24T04:02:33.208Z,105.18
2022-11-24T04:05:00.228Z,68.73
2022-11-24T04:07:27.109Z,32.15
2022-11-24T04:09:54.084Z,28.55
2022-11-24T04:12:39.115Z,42.85
2022-11-24T04:15:06.343Z,76.68
2022-11-24T04:17:33.026Z,66.47
2022-11-24T04:19:59.998Z,80.32
2022-11-24T04:22:26.989Z,91.72
2022-11-24T04:24:53.879Z,116.65
2022-11-24T04:27:20.554Z,114.47
2022-11-24T04:29:47.497Z,88.63
2022-11-24T04:32:14.134Z,100.43
2022-11-24T04:34:41.018Z,80.32
2022-11-24T04:37:07.750Z,54.15
2022-11-24T04:39:34.693Z,34.13
2022-11-24T04:42:01.532Z,21.07
2022-11-24T04:44:28.444Z,13.35
2022-11-24T04:46:55.199Z,12.48
2022-11-24T04:49:22.179Z,13.60
2022-11-24T04:51:48.872Z,11.43
2022-11-24T04:54:16.233Z,10.53
2022-11-24T04:56:43.952Z,11.27
2022-11-24T04:59:16.881Z,17.23
2022-11-24T05:01:44.765Z,107.88
2022-11-24T05:04:14.382Z,49.03
2022-11-24T05:06:41.261Z,42.80
2022-11-24T05:09:08.769Z,23.35
2022-11-24T05:11:35.422Z,30.77
2022-11-24T05:14:02.379Z,142.63
2022-11-24T05:16:29.166Z,180.35
2022-11-24T05:18:56.157Z,113.90
2022-11-24T05:21:23.425Z,55.53
2022-11-24T05:23:50.426Z,27.42
2022-11-24T05:26:17.311Z,42.60
2022-11-24T05:28:44.220Z,35.53
2022-11-24T05:31:11.101Z,27.87
2022-11-24T05:33:38.313Z,26.52
2022-11-24T05:36:07.002Z,29.83
2022-11-24T05:38:34.207Z,15.32
2022-11-24T05:41:02.860Z,20.83
2022-11-24T05:43:30.066Z,23.77
2022-11-24T05:46:00.710Z,21.25
2022-11-24T05:48:27.775Z,14.02
2022-11-24T05:50:56.214Z,14.15
2022-11-24T05:53:24.185Z,19.98
2022-11-24T05:55:50.917Z,19.40
2022-11-24T05:58:18.148Z,21.05
2022-11-24T06:00:44.810Z,26.92
2022-11-24T06:03:12.525Z,16.80
2022-11-24T06:05:39.416Z,18.65
2022-11-24T06:08:06.336Z,13.90
2022-11-24T06:10:33.005Z,11.30
2022-11-24T06:13:05.031Z,12.10
2022-11-24T06:15:31.762Z,12.02
2022-11-24T06:17:58.734Z,10.55
2022-11-24T06:20:29.921Z,10.57
2022-11-24T06:22:59.991Z,16.83
2022-11-24T06:25:27.778Z,12.30
2022-11-24T06:27:55.051Z,14.18
2022-11-24T06:30:21.668Z,18.98
2022-11-24T06:32:49.854Z,14.40
2022-11-24T06:35:17.130Z,11.48
2022-11-24T06:37:45.701Z,14.38
2022-11-24T06:40:12.829Z,12.93
2022-11-24T06:42:39.809Z,11.73
2022-11-24T06:45:09.379Z,33.83
2022-11-24T06:47:37.087Z,84.68
2022-11-24T06:50:04.454Z,65.72
2022-11-24T06:52:31.447Z,73.45
2022-11-24T06:54:58.201Z,69.72
2022-11-24T06:57:25.147Z,164.90
2022-11-24T06:59:52.130Z,124.75
2022-11-24T07:02:19.040Z,110.95
2022-11-24T07:04:45.798Z,81.35
2022-11-24T07:07:12.779Z,56.92
2022-11-24T07:09:39.547Z,34.23
2022-11-24T07:12:06.958Z,32.35
2022-11-24T07:14:34.005Z,45.13
2022-11-24T07:17:02.576Z,71.43
2022-11-24T07:19:29.362Z,152.93
2022-11-24T07:21:56.747Z,179.83
2022-11-24T07:24:23.470Z,92.75
2022-11-24T07:26:50.486Z,43.70
2022-11-24T07:29:17.191Z,25.95
2022-11-24T07:31:45.944Z,20.13
2022-11-24T07:34:14.669Z,9.17
2022-11-24T07:36:42.682Z,9.13
2022-11-24T07:39:09.388Z,5.68
2022-11-24T07:41:36.303Z,9.40
2022-11-24T07:44:03.107Z,6.95
2022-11-24T07:46:30.102Z,8.87
2022-11-24T07:48:56.785Z,9.45
2022-11-24T07:51:24.249Z,12.05
2022-11-24T07:53:51.024Z,8.68
2022-11-24T07:56:17.932Z,10.85
2022-11-24T07:58:49.702Z,11.43
2022-11-24T08:01:18.978Z,11.35
2022-11-24T08:03:46.451Z,10.50
2022-11-24T08:06:37.494Z,15.90
2022-11-24T08:09:00.963Z,40.78
2022-11-24T08:11:28.434Z,104.83
2022-11-24T08:13:55.963Z,102.32
2022-11-24T08:16:23.087Z,71.70
2022-11-24T08:18:52.342Z,66.28
2022-11-24T08:21:19.339Z,66.30
2022-11-24T08:23:46.557Z,78.67
2022-11-24T08:26:17.806Z,79.32
2022-11-24T08:28:46.388Z,60.13
2022-11-24T08:31:16.073Z,62.25
2022-11-24T08:33:43.469Z,66.95
2022-11-24T08:36:14.781Z,56.97
2022-11-24T08:38:42.230Z,36.83
2022-11-24T08:41:11.754Z,24.35
2022-11-24T08:43:39.546Z,60.75
2022-11-24T08:46:11.593Z,48.67
2022-11-24T08:48:38.684Z,24.10
2022-11-24T08:51:15.199Z,15.02
2022-11-24T08:53:42.771Z,10.52
2022-11-24T08:56:10.868Z,7.22
2022-11-24T08:58:38.187Z,10.25
2022-11-24T09:01:05.039Z,25.80
2022-11-24T09:03:32.113Z,74.57
2022-11-24T09:05:58.880Z,91.85
2022-11-24T09:08:26.039Z,87.38
2022-11-24T09:10:52.870Z,38.72
2022-11-24T09:13:19.819Z,18.33
2022-11-24T09:15:46.475Z,46.50
2022-11-24T09:18:13.624Z,78.43
2022-11-24T09:20:40.731Z,38.65
2022-11-24T09:23:07.828Z,32.03
2022-11-24T09:25:34.519Z,22.80
2022-11-24T09:28:01.511Z,53.13
2022-11-24T09:30:28.554Z,90.38
2022-11-24T09:32:56.682Z,25.98
2022-11-24T09:35:23.782Z,15.05
2022-11-24T09:37:51.235Z,11.13
2022-11-24T09:40:18.176Z,19.83
2022-11-24T09:42:53.263Z,13.82
2022-11-24T09:46:03.297Z,8.02
2022-11-24T09:48:40.101Z,9.40
2022-11-24T09:51:11.328Z,12.53
2022-11-24T09:53:44.655Z,9.23
2022-11-24T09:56:23.721Z,7.30
2022-11-24T09:59:04.974Z,7.70
2022-11-24T10:01:41.413Z,7.50
2022-11-24T10:04:37.252Z,9.50
2022-11-24T10:07:19.507Z,8.18
2022-11-24T10:10:24.517Z,6.22
2022-11-24T10:13:26.693Z,4.88
2022-11-24T10:15:53.651Z,5.78
2022-11-24T10:18:45.288Z,14.30
2022-11-24T10:21:33.703Z,13.13
2022-11-24T10:24:25.685Z,14.40
2022-11-24T10:27:09.618Z,17.60
2022-11-24T10:29:40.551Z,17.38
2022-11-24T10:32:15.208Z,16.20
2022-11-24T10:34:45.633Z,16.00
2022-11-24T10:37:21.519Z,9.02
2022-11-24T10:40:21.350Z,7.53
2022-11-24T10:42:56.895Z,33.08
2022-11-24T10:45:23.696Z,15.03
2022-11-24T10:47:50.782Z,10.23
2022-11-24T10:50:22.214Z,11.00
2022-11-24T10:52:56.954Z,7.18
2022-11-24T10:55:23.858Z,8.57
2022-11-24T10:57:50.767Z,8.57
2022-11-24T11:00:20.171Z,6.60
2022-11-24T11:03:09.804Z,6.97
2022-11-24T11:05:43.152Z,6.38
2022-11-24T11:08:10.402Z,5.43
2022-11-24T11:10:37.213Z,8.63
2022-11-24T11:13:30.533Z,9.05
2022-11-24T11:15:58.650Z,10.48
2022-11-24T11:18:31.972Z,13.10
2022-11-24T11:21:04.574Z,6.38
2022-11-24T11:23:35.261Z,9.87
2022-11-24T11:26:31.500Z,8.77
2022-11-24T11:35:03.585Z,7.38
2022-11-24T11:37:33.011Z,7.03
2022-11-24T11:40:00.494Z,8.93
2022-11-24T11:45:24.043Z,8.50
2022-11-24T11:48:03.143Z,12.23
2022-11-24T11:51:21.300Z,9.10
2022-11-24T11:53:45.345Z,8.27
2022-11-24T11:56:36.830Z,7.95
2022-11-24T11:59:24.045Z,8.70
2022-11-24T12:01:56.790Z,9.55
2022-11-24T12:04:58.219Z,8.97
2022-11-24T12:07:43.310Z,7.05
2022-11-24T12:10:28.869Z,21.25
2022-11-24T12:13:14.048Z,40.63
2022-11-24T12:15:53.516Z,38.42
2022-11-24T12:18:58.917Z,33.03
2022-11-24T12:21:35.641Z,16.67
2022-11-24T12:24:24.233Z,43.08
2022-11-24T12:26:56.946Z,31.80
2022-11-24T12:29:33.261Z,38.75
2022-11-24T12:32:25.378Z,20.77
2022-11-24T12:35:19.670Z,12.50
2022-11-24T12:38:16.050Z,13.68
2022-11-24T12:41:39.785Z,37.97
2022-11-24T12:43:53.312Z,11.85
2022-11-24T12:46:48.647Z,15.10
2022-11-24T12:49:35.935Z,14.40
2022-11-24T12:52:10.121Z,28.45
2022-11-24T12:54:40.495Z,26.42
2022-11-24T12:57:16.329Z,24.63
2022-11-24T12:59:58.089Z,28.17
2022-11-24T13:02:31.267Z,37.83
2022-11-24T13:05:18.865Z,32.55
2022-11-24T13:07:49.296Z,22.70
2022-11-24T13:10:55.470Z,23.67
2022-11-24T13:13:14.420Z,31.50
2022-11-24T13:16:20.295Z,24.45
2022-11-24T13:18:53.888Z,12.95
2022-11-24T13:21:40.430Z,9.73
2022-11-24T13:24:17.556Z,16.73
2022-11-24T13:26:48.336Z,12.30
2022-11-24T13:29:25.498Z,9.82
2022-11-24T13:31:52.691Z,12.82
2022-11-24T13:34:45.621Z,11.13
2022-11-24T13:37:28.851Z,10.52
2022-11-24T13:40:11.804Z,17.73
2022-11-24T13:43:02.839Z,7.28
2022-11-24T13:45:38.718Z,7.38
2022-11-24T13:48:28.489Z,8.95
2022-11-24T13:50:58.239Z,8.43
2022-11-24T13:53:57.143Z,8.67
2022-11-24T13:56:26.429Z,19.23
2022-11-24T13:58:59.257Z,14.77
2022-11-24T14:01:28.647Z,11.77
2022-11-24T14:07:08.327Z,6.90
2022-11-24T14:09:47.233Z,39.35
2022-11-24T14:12:24.725Z,17.05
2022-11-24T14:14:55.544Z,12.65
2022-11-24T14:17:24.766Z,9.25
2022-11-24T14:19:53.620Z,45.57
2022-11-24T14:22:27.735Z,43.10
2022-11-24T14:24:57.345Z,19.75
2022-11-24T14:27:34.122Z,26.17
2022-11-24T14:30:18.325Z,14.35
2022-11-24T14:32:59.717Z,18.77
2022-11-24T14:35:34.066Z,27.75
2022-11-24T14:38:05.420Z,25.85
2022-11-24T14:40:53.071Z,14.85
2022-11-24T14:43:30.930Z,17.20
2022-11-24T14:46:07.520Z,16.35
2022-11-24T14:48:46.639Z,9.97
2022-11-24T14:51:30.299Z,12.52
2022-11-24T14:54:12.343Z,10.88
2022-11-24T14:56:39.889Z,9.23
2022-11-24T14:59:24.739Z,10.15
2022-11-24T15:01:51.777Z,10.27
2022-11-24T15:07:21.288Z,8.55
2022-11-24T15:09:48.170Z,8.20
2022-11-24T15:12:29.235Z,9.13
2022-11-24T15:15:16.133Z,11.93
2022-11-24T15:18:02.347Z,9.93
2022-11-24T15:20:36.131Z,10.98
2022-11-24T15:23:25.174Z,10.93
2022-11-24T15:26:18.127Z,9.43
2022-11-24T15:28:47.730Z,7.57
2022-11-24T15:31:15.114Z,9.73
2022-11-24T15:33:42.382Z,10.30
2022-11-24T15:36:11.506Z,7.95
2022-11-24T15:38:38.211Z,7.57
2022-11-24T15:41:16.263Z,8.17
2022-11-24T15:43:43.029Z,8.88
2022-11-24T15:46:10.376Z,11.65
2022-11-24T15:48:37.363Z,10.73
2022-11-24T15:51:07.820Z,10.18
2022-11-24T15:53:37.662Z,10.13
2022-11-24T15:56:08.497Z,11.30
2022-11-24T15:58:35.255Z,9.25
2022-11-24T16:01:02.170Z,9.63
2022-11-24T16:06:24.780Z,11.10
2022-11-24T16:08:53.562Z,11.82
2022-11-24T16:11:21.145Z,10.50
2022-11-24T16:13:52.413Z,11.15
2022-11-24T16:16:22.604Z,11.85
2022-11-24T16:18:49.496Z,12.90
2022-11-24T16:21:16.640Z,14.23
2022-11-24T16:23:43.415Z,13.98
2022-11-24T16:26:10.434Z,18.10
2022-11-24T16:28:37.280Z,15.82
2022-11-24T16:31:04.451Z,16.03
2022-11-24T16:33:31.374Z,14.00
2022-11-24T16:35:58.683Z,17.95
2022-11-24T16:38:25.389Z,15.40
2022-11-24T16:40:54.641Z,11.32
2022-11-24T16:43:21.645Z,8.67
2022-11-24T16:46:19.075Z,13.27
2022-11-24T16:48:47.683Z,9.38
2022-11-24T16:51:15.618Z,7.50
2022-11-24T16:53:42.945Z,9.75
2022-11-24T16:56:10.322Z,8.80
2022-11-24T16:58:38.773Z,10.93
2022-11-24T17:01:10.513Z,8.43
2022-11-24T17:03:38.516Z,10.18
2022-11-24T17:06:08.338Z,8.00
2022-11-24T17:08:39.321Z,7.97
2022-11-24T17:11:10.444Z,9.43
2022-11-24T17:13:37.660Z,8.40
2022-11-24T17:16:09.835Z,11.05
2022-11-24T17:18:37.200Z,7.85
2022-11-24T17:21:09.453Z,8.40
2022-11-24T17:23:36.983Z,9.20
2022-11-24T17:26:06.696Z,8.35
2022-11-24T17:28:34.533Z,9.70
2022-11-24T17:31:27.674Z,7.30
2022-11-24T17:33:57.047Z,9.90
2022-11-24T17:36:23.778Z,6.55
2022-11-24T17:38:50.777Z,7.03
2022-11-24T17:41:18.796Z,12.98
2022-11-24T17:43:57.798Z,11.60
2022-11-24T17:46:29.226Z,11.80
2022-11-24T17:48:56.955Z,15.45
2022-11-24T17:51:25.768Z,21.35
2022-11-24T17:53:54.312Z,21.75
2022-11-24T17:56:30.212Z,17.02
2022-11-24T17:58:59.407Z,12.63
2022-11-24T18:01:28.656Z,9.43
2022-11-24T18:03:55.981Z,11.75
2022-11-24T18:06:25.318Z,10.32
2022-11-24T18:08:54.053Z,10.88
2022-11-24T18:11:31.088Z,23.43
2022-11-24T18:14:02.135Z,19.75
2022-11-24T18:16:31.266Z,28.55
2022-11-24T18:19:08.342Z,36.53
2022-11-24T18:21:40.667Z,34.42
2022-11-24T18:24:08.996Z,28.77
2022-11-24T18:26:36.196Z,19.30
2022-11-24T18:29:03.396Z,13.05
2022-11-24T18:31:31.265Z,13.73
2022-11-24T18:33:59.278Z,10.68
2022-11-24T18:36:30.297Z,8.93
2022-11-24T18:39:00.784Z,13.77
2022-11-24T18:41:27.488Z,15.40
2022-11-24T18:43:54.430Z,12.70
2022-11-24T18:46:21.244Z,13.63
2022-11-24T18:48:48.266Z,14.10
2022-11-24T18:51:14.979Z,11.07
2022-11-24T18:53:43.566Z,7.80
2022-11-24T18:56:17.364Z,8.35
2022-11-24T18:58:45.042Z,18.88
2022-11-24T19:01:17.406Z,17.63
2022-11-24T19:03:55.834Z,31.40
2022-11-24T19:06:31.988Z,46.22
2022-11-24T19:09:04.741Z,27.77
2022-11-24T19:11:35.476Z,17.77
2022-11-24T19:14:04.589Z,14.35
2022-11-24T19:16:31.397Z,17.23
2022-11-24T19:19:00.146Z,12.38
2022-11-24T19:21:27.871Z,18.35
2022-11-24T19:23:58.518Z,27.13
2022-11-24T19:26:28.057Z,20.02
2022-11-24T19:28:55.341Z,18.70
2022-11-24T19:31:22.045Z,16.92
2022-11-24T19:33:49.084Z,14.40
2022-11-24T19:36:18.943Z,11.98
2022-11-24T19:38:51.809Z,10.55
2022-11-24T19:41:20.914Z,10.93
2022-11-24T19:43:49.044Z,14.18
2022-11-24T19:46:17.615Z,14.57
2022-11-24T19:48:46.995Z,16.00
2022-11-24T19:51:16.364Z,25.25
2022-11-24T19:53:43.561Z,18.80
2022-11-24T19:56:16.300Z,19.13
2022-11-24T19:58:43.674Z,16.20
2022-11-24T20:01:16.793Z,16.95
2022-11-24T20:03:45.009Z,17.13
2022-11-24T20:06:13.451Z,19.90
2022-11-24T20:08:41.686Z,20.17
2022-11-24T20:11:14.478Z,33.83
2022-11-24T20:13:43.411Z,24.55
2022-11-24T20:16:18.894Z,27.05
2022-11-24T20:18:47.765Z,20.53
2022-11-24T20:21:20.708Z,17.17
2022-11-24T20:23:54.163Z,11.18
2022-11-24T20:26:25.197Z,16.02
2022-11-24T20:28:54.625Z,21.15
2022-11-24T20:31:24.235Z,26.77
2022-11-24T20:33:51.930Z,19.50
2022-11-24T20:36:21.647Z,20.80
2022-11-24T20:38:49.976Z,17.42
2022-11-24T20:41:18.042Z,15.00
2022-11-24T20:43:46.299Z,17.47
2022-11-24T20:46:19.149Z,16.73
2022-11-24T20:48:46.737Z,26.38
2022-11-24T20:51:32.466Z,22.38
2022-11-24T20:54:02.245Z,34.35
2022-11-24T20:56:32.233Z,28.30
2022-11-24T20:59:01.253Z,29.17
2022-11-24T21:01:35.404Z,36.05
2022-11-24T21:04:03.338Z,30.30
2022-11-24T21:06:32.430Z,21.98
2022-11-24T21:09:04.120Z,25.47
2022-11-24T21:11:31.485Z,29.58
2022-11-24T21:13:58.897Z,31.60
2022-11-24T21:16:28.200Z,32.90
2022-11-24T21:19:01.189Z,21.63
2022-11-24T21:21:35.007Z,26.93
2022-11-24T21:24:10.209Z,27.50
2022-11-24T21:26:38.983Z,27.15
2022-11-24T21:29:07.052Z,30.30
2022-11-24T21:31:38.849Z,21.42
2022-11-24T21:34:08.015Z,14.00
2022-11-24T21:36:36.307Z,14.10
2022-11-24T21:39:03.922Z,15.35
2022-11-24T21:41:33.067Z,9.45
2022-11-24T21:44:00.225Z,11.38
2022-11-24T21:46:28.971Z,19.73
2022-11-24T21:48:55.901Z,15.95
2022-11-24T21:51:22.802Z,12.02
2022-11-24T21:53:49.769Z,15.45
2022-11-24T21:56:19.646Z,12.57
2022-11-24T21:58:52.151Z,9.73
2022-11-24T22:01:21.080Z,10.63
2022-11-24T22:03:49.721Z,10.75
2022-11-24T22:06:19.066Z,12.70
2022-11-24T22:08:48.641Z,20.33
2022-11-24T22:11:20.925Z,13.93
2022-11-24T22:13:50.140Z,13.65
2022-11-24T22:16:24.540Z,10.13
2022-11-24T22:18:52.148Z,10.60
2022-11-24T22:21:23.750Z,10.60
2022-11-24T22:23:55.131Z,9.97
2022-11-24T22:26:24.539Z,12.10
2022-11-24T22:28:54.616Z,13.18
2022-11-24T22:31:27.244Z,8.30
2022-11-24T22:33:55.838Z,14.13
2022-11-24T22:36:25.152Z,10.20
2022-11-24T22:38:57.318Z,18.27
2022-11-24T22:41:24.626Z,18.80
2022-11-24T22:43:51.871Z,13.73
2022-11-24T22:46:24.217Z,16.75
2022-11-24T22:48:52.984Z,12.97
2022-11-24T22:51:32.355Z,12.95
2022-11-24T22:54:01.602Z,16.98
2022-11-24T22:56:29.685Z,14.48
2022-11-24T22:58:57.536Z,12.05
2022-11-24T23:01:25.439Z,10.93
2022-11-24T23:03:56.032Z,14.60
2022-11-24T23:06:24.642Z,9.73
2022-11-24T23:08:52.725Z,9.68
2022-11-24T23:11:27.362Z,8.15
2022-11-24T23:14:00.448Z,8.00
2022-11-24T23:16:28.933Z,8.75
2022-11-24T23:18:56.196Z,12.38
2022-11-24T23:21:31.964Z,13.27
2022-11-24T23:24:00.970Z,13.50
2022-11-24T23:26:30.733Z,15.83
2022-11-24T23:28:57.710Z,12.30
2022-11-24T23:31:29.078Z,13.63
2022-11-24T23:33:58.765Z,15.27
2022-11-24T23:36:25.669Z,17.15
2022-11-24T23:38:52.639Z,23.00
2022-11-24T23:41:22.834Z,23.52
2022-11-24T23:43:50.185Z,19.65
2022-11-24T23:46:20.488Z,16.83
2022-11-24T23:48:49.372Z,18.52
2022-11-24T23:51:16.335Z,18.43
2022-11-24T23:53:44.169Z,19.98
2022-11-24T23:56:19.836Z,19.08
2022-11-24T23:58:46.782Z,14.60
